sensor_id;sensor_type;location;lat;lon;timestamp;pressure;altitude;pressure_sealevel;temperature;humidity
70437;BME280;57877;39.750;-104.894;2022-07-29T00:01:07;84122.92;;;27.13;29.09
70437;BME280;57877;39.750;-104.894;2022-07-29T00:03:32;84117.22;;;27.78;28.91
70437;BME280;57877;39.750;-104.894;2022-07-29T00:05:57;84115.34;;;27.43;28.76
70437;BME280;57877;39.750;-104.894;2022-07-29T00:08:22;84117.14;;;27.33;28.64
70437;BME280;57877;39.750;-104.894;2022-07-29T00:10:47;84118.40;;;27.45;28.82
70437;BME280;57877;39.750;-104.894;2022-07-29T00:13:12;84115.59;;;26.83;28.73
70437;BME280;57877;39.750;-104.894;2022-07-29T00:15:37;84111.16;;;26.40;29.15
70437;BME280;57877;39.750;-104.894;2022-07-29T00:18:02;84111.23;;;26.80;29.03
70437;BME280;57877;39.750;-104.894;2022-07-29T00:20:27;84112.73;;;26.80;29.23
70437;BME280;57877;39.750;-104.894;2022-07-29T00:22:52;84112.17;;;26.74;29.05
70437;BME280;57877;39.750;-104.894;2022-07-29T00:25:18;84111.73;;;26.31;29.33
70437;BME280;57877;39.750;-104.894;2022-07-29T00:27:43;84114.05;;;26.43;29.26
70437;BME280;57877;39.750;-104.894;2022-07-29T00:30:09;84114.57;;;26.40;29.36
70437;BME280;57877;39.750;-104.894;2022-07-29T00:32:34;84112.55;;;25.91;30.02
70437;BME280;57877;39.750;-104.894;2022-07-29T00:34:58;84109.61;;;26.27;29.30
70437;BME280;57877;39.750;-104.894;2022-07-29T00:37:25;84107.73;;;26.40;29.26
70437;BME280;57877;39.750;-104.894;2022-07-29T00:39:49;84107.46;;;26.21;29.29
70437;BME280;57877;39.750;-104.894;2022-07-29T00:42:14;84107.58;;;26.41;28.91
70437;BME280;57877;39.750;-104.894;2022-07-29T00:44:40;84105.41;;;26.62;28.63
70437;BME280;57877;39.750;-104.894;2022-07-29T00:47:05;84106.52;;;26.64;28.64
70437;BME280;57877;39.750;-104.894;2022-07-29T00:49:30;84104.15;;;26.63;28.50
70437;BME280;57877;39.750;-104.894;2022-07-29T00:51:55;84104.42;;;26.60;27.90
70437;BME280;57877;39.750;-104.894;2022-07-29T00:54:21;84104.95;;;26.79;27.94
70437;BME280;57877;39.750;-104.894;2022-07-29T00:56:45;84103.65;;;26.86;27.70
70437;BME280;57877;39.750;-104.894;2022-07-29T00:59:10;84102.61;;;26.64;27.28
70437;BME280;57877;39.750;-104.894;2022-07-29T01:01:36;84106.54;;;26.73;27.25
70437;BME280;57877;39.750;-104.894;2022-07-29T01:04:01;84108.08;;;26.12;26.96
70437;BME280;57877;39.750;-104.894;2022-07-29T01:06:26;84107.39;;;25.73;27.93
70437;BME280;57877;39.750;-104.894;2022-07-29T01:08:51;84104.48;;;26.41;27.05
70437;BME280;57877;39.750;-104.894;2022-07-29T01:11:16;84099.25;;;25.61;27.54
70437;BME280;57877;39.750;-104.894;2022-07-29T01:13:41;84097.21;;;25.13;28.37
70437;BME280;57877;39.750;-104.894;2022-07-29T01:16:25;84097.80;;;25.26;27.93
70437;BME280;57877;39.750;-104.894;2022-07-29T01:18:34;84101.71;;;25.40;27.95
70437;BME280;57877;39.750;-104.894;2022-07-29T01:21:15;84105.33;;;25.91;27.53
70437;BME280;57877;39.750;-104.894;2022-07-29T01:25:58;84107.78;;;25.94;27.04
70437;BME280;57877;39.750;-104.894;2022-07-29T01:30:42;84110.88;;;25.57;27.28
70437;BME280;57877;39.750;-104.894;2022-07-29T01:33:11;84104.35;;;26.10;26.99
70437;BME280;57877;39.750;-104.894;2022-07-29T01:35:36;84106.34;;;26.30;27.33
70437;BME280;57877;39.750;-104.894;2022-07-29T01:38:08;84109.43;;;26.12;27.14
70437;BME280;57877;39.750;-104.894;2022-07-29T01:40:29;84114.75;;;26.15;26.24
70437;BME280;57877;39.750;-104.894;2022-07-29T01:45:17;84113.62;;;25.86;25.06
70437;BME280;57877;39.750;-104.894;2022-07-29T01:47:44;84112.86;;;25.72;25.24
70437;BME280;57877;39.750;-104.894;2022-07-29T01:50:10;84116.86;;;25.81;25.25
70437;BME280;57877;39.750;-104.894;2022-07-29T01:52:34;84117.44;;;25.68;25.44
70437;BME280;57877;39.750;-104.894;2022-07-29T01:54:58;84115.57;;;25.62;25.59
70437;BME280;57877;39.750;-104.894;2022-07-29T01:57:24;84115.25;;;25.70;25.48
70437;BME280;57877;39.750;-104.894;2022-07-29T01:59:47;84119.25;;;25.60;25.98
70437;BME280;57877;39.750;-104.894;2022-07-29T02:02:11;84120.92;;;25.51;26.03
70437;BME280;57877;39.750;-104.894;2022-07-29T02:04:37;84117.27;;;25.32;26.51
70437;BME280;57877;39.750;-104.894;2022-07-29T02:07:05;84116.71;;;25.05;26.94
70437;BME280;57877;39.750;-104.894;2022-07-29T02:09:26;84119.18;;;24.62;28.67
70437;BME280;57877;39.750;-104.894;2022-07-29T02:11:53;84123.35;;;24.85;29.55
70437;BME280;57877;39.750;-104.894;2022-07-29T02:14:17;84125.83;;;25.01;29.80
70437;BME280;57877;39.750;-104.894;2022-07-29T02:16:42;84125.02;;;24.62;30.48
70437;BME280;57877;39.750;-104.894;2022-07-29T02:19:07;84124.89;;;24.91;30.73
70437;BME280;57877;39.750;-104.894;2022-07-29T02:21:32;84123.90;;;24.60;31.68
70437;BME280;57877;39.750;-104.894;2022-07-29T02:24:00;84123.63;;;24.64;31.97
70437;BME280;57877;39.750;-104.894;2022-07-29T02:26:24;84127.02;;;24.56;32.40
70437;BME280;57877;39.750;-104.894;2022-07-29T02:28:48;84127.40;;;24.54;32.80
70437;BME280;57877;39.750;-104.894;2022-07-29T02:31:14;84126.21;;;24.36;33.07
70437;BME280;57877;39.750;-104.894;2022-07-29T02:33:41;84129.43;;;24.24;33.19
70437;BME280;57877;39.750;-104.894;2022-07-29T02:36:04;84131.54;;;24.13;33.26
70437;BME280;57877;39.750;-104.894;2022-07-29T02:38:30;84131.90;;;23.80;33.63
70437;BME280;57877;39.750;-104.894;2022-07-29T02:40:56;84135.91;;;24.28;33.31
70437;BME280;57877;39.750;-104.894;2022-07-29T02:43:21;84138.46;;;23.75;33.74
70437;BME280;57877;39.750;-104.894;2022-07-29T02:45:48;84141.87;;;24.01;33.57
70437;BME280;57877;39.750;-104.894;2022-07-29T02:48:15;84147.66;;;23.90;33.83
70437;BME280;57877;39.750;-104.894;2022-07-29T02:50:41;84156.33;;;24.13;33.92
70437;BME280;57877;39.750;-104.894;2022-07-29T02:53:09;84159.59;;;23.94;34.39
70437;BME280;57877;39.750;-104.894;2022-07-29T02:55:33;84160.47;;;24.21;34.10
70437;BME280;57877;39.750;-104.894;2022-07-29T02:57:59;84159.24;;;24.34;34.42
70437;BME280;57877;39.750;-104.894;2022-07-29T03:00:21;84161.26;;;24.52;34.39
70437;BME280;57877;39.750;-104.894;2022-07-29T03:02:52;84166.15;;;24.46;34.69
70437;BME280;57877;39.750;-104.894;2022-07-29T03:05:17;84167.18;;;24.03;35.35
70437;BME280;57877;39.750;-104.894;2022-07-29T03:07:39;84166.55;;;23.62;35.82
70437;BME280;57877;39.750;-104.894;2022-07-29T03:10:07;84168.23;;;22.40;36.59
70437;BME280;57877;39.750;-104.894;2022-07-29T03:12:31;84173.21;;;22.73;36.18
70437;BME280;57877;39.750;-104.894;2022-07-29T03:14:57;84176.45;;;22.14;36.98
70437;BME280;57877;39.750;-104.894;2022-07-29T03:17:23;84176.22;;;22.72;35.82
70437;BME280;57877;39.750;-104.894;2022-07-29T03:19:49;84178.05;;;23.06;34.95
70437;BME280;57877;39.750;-104.894;2022-07-29T03:22:15;84181.95;;;23.44;34.46
70437;BME280;57877;39.750;-104.894;2022-07-29T03:24:40;84187.02;;;23.85;34.23
70437;BME280;57877;39.750;-104.894;2022-07-29T03:27:07;84191.81;;;23.86;33.98
70437;BME280;57877;39.750;-104.894;2022-07-29T03:29:33;84193.49;;;24.12;33.61
70437;BME280;57877;39.750;-104.894;2022-07-29T03:31:59;84196.04;;;23.57;33.95
70437;BME280;57877;39.750;-104.894;2022-07-29T03:34:24;84192.65;;;23.87;33.51
70437;BME280;57877;39.750;-104.894;2022-07-29T03:36:50;84192.55;;;23.79;33.89
70437;BME280;57877;39.750;-104.894;2022-07-29T03:39:18;84195.29;;;23.78;33.83
70437;BME280;57877;39.750;-104.894;2022-07-29T03:41:42;84196.63;;;23.35;34.77
70437;BME280;57877;39.750;-104.894;2022-07-29T03:44:08;84197.14;;;23.53;34.65
70437;BME280;57877;39.750;-104.894;2022-07-29T03:46:35;84203.23;;;23.51;34.78
70437;BME280;57877;39.750;-104.894;2022-07-29T03:49:02;84208.87;;;22.97;35.89
70437;BME280;57877;39.750;-104.894;2022-07-29T03:51:26;84220.36;;;21.52;38.33
70437;BME280;57877;39.750;-104.894;2022-07-29T03:53:51;84223.04;;;20.83;40.52
70437;BME280;57877;39.750;-104.894;2022-07-29T03:56:21;84226.44;;;20.45;41.71
70437;BME280;57877;39.750;-104.894;2022-07-29T03:58:44;84229.54;;;20.40;41.72
70437;BME280;57877;39.750;-104.894;2022-07-29T04:01:09;84231.01;;;20.23;41.95
70437;BME280;57877;39.750;-104.894;2022-07-29T04:03:35;84230.23;;;20.80;41.50
70437;BME280;57877;39.750;-104.894;2022-07-29T04:06:03;84228.72;;;21.03;41.28
70437;BME280;57877;39.750;-104.894;2022-07-29T04:08:27;84229.69;;;20.31;42.46
70437;BME280;57877;39.750;-104.894;2022-07-29T04:10:53;84232.83;;;20.20;42.68
70437;BME280;57877;39.750;-104.894;2022-07-29T04:13:19;84226.60;;;19.88;43.66
70437;BME280;57877;39.750;-104.894;2022-07-29T04:15:45;84225.56;;;20.89;41.99
70437;BME280;57877;39.750;-104.894;2022-07-29T04:18:11;84221.15;;;20.44;42.24
70437;BME280;57877;39.750;-104.894;2022-07-29T04:20:37;84223.96;;;21.18;41.33
70437;BME280;57877;39.750;-104.894;2022-07-29T04:23:03;84224.50;;;21.38;40.25
70437;BME280;57877;39.750;-104.894;2022-07-29T04:25:29;84225.83;;;21.21;40.47
70437;BME280;57877;39.750;-104.894;2022-07-29T04:27:55;84224.04;;;21.13;40.50
70437;BME280;57877;39.750;-104.894;2022-07-29T04:30:21;84220.47;;;21.66;39.73
70437;BME280;57877;39.750;-104.894;2022-07-29T04:32:47;84220.79;;;22.08;39.04
70437;BME280;57877;39.750;-104.894;2022-07-29T04:35:13;84221.34;;;22.28;38.62
70437;BME280;57877;39.750;-104.894;2022-07-29T04:37:39;84219.37;;;22.27;37.98
70437;BME280;57877;39.750;-104.894;2022-07-29T04:40:06;84221.36;;;22.38;37.70
70437;BME280;57877;39.750;-104.894;2022-07-29T04:42:31;84221.09;;;22.43;37.58
70437;BME280;57877;39.750;-104.894;2022-07-29T04:44:57;84222.74;;;22.43;37.47
70437;BME280;57877;39.750;-104.894;2022-07-29T04:47:23;84222.52;;;22.32;37.36
70437;BME280;57877;39.750;-104.894;2022-07-29T04:49:49;84228.84;;;22.50;37.46
70437;BME280;57877;39.750;-104.894;2022-07-29T04:52:15;84231.25;;;21.79;38.36
70437;BME280;57877;39.750;-104.894;2022-07-29T04:54:40;84229.57;;;20.98;39.98
70437;BME280;57877;39.750;-104.894;2022-07-29T04:57:06;84220.46;;;22.16;38.64
70437;BME280;57877;39.750;-104.894;2022-07-29T04:59:32;84215.68;;;22.32;38.07
70437;BME280;57877;39.750;-104.894;2022-07-29T05:01:58;84218.02;;;22.30;37.68
70437;BME280;57877;39.750;-104.894;2022-07-29T05:04:24;84213.88;;;22.52;37.46
70437;BME280;57877;39.750;-104.894;2022-07-29T05:06:50;84212.57;;;22.55;37.37
70437;BME280;57877;39.750;-104.894;2022-07-29T05:09:16;84211.14;;;22.53;37.51
70437;BME280;57877;39.750;-104.894;2022-07-29T05:11:42;84215.54;;;22.72;37.38
70437;BME280;57877;39.750;-104.894;2022-07-29T05:14:08;84218.47;;;22.34;37.27
70437;BME280;57877;39.750;-104.894;2022-07-29T05:16:34;84217.74;;;22.67;37.34
70437;BME280;57877;39.750;-104.894;2022-07-29T05:19:00;84219.69;;;22.84;37.18
70437;BME280;57877;39.750;-104.894;2022-07-29T05:21:26;84217.73;;;22.71;37.27
70437;BME280;57877;39.750;-104.894;2022-07-29T05:23:52;84218.28;;;22.66;37.24
70437;BME280;57877;39.750;-104.894;2022-07-29T05:26:18;84215.26;;;22.68;37.27
70437;BME280;57877;39.750;-104.894;2022-07-29T05:28:44;84213.49;;;22.41;37.28
70437;BME280;57877;39.750;-104.894;2022-07-29T05:31:10;84209.79;;;22.67;37.24
70437;BME280;57877;39.750;-104.894;2022-07-29T05:33:36;84206.75;;;22.74;37.19
70437;BME280;57877;39.750;-104.894;2022-07-29T05:36:03;84207.29;;;22.70;37.19
70437;BME280;57877;39.750;-104.894;2022-07-29T05:38:29;84208.59;;;22.41;37.14
70437;BME280;57877;39.750;-104.894;2022-07-29T05:40:57;84212.64;;;22.25;37.32
70437;BME280;57877;39.750;-104.894;2022-07-29T05:43:20;84219.74;;;22.23;37.77
70437;BME280;57877;39.750;-104.894;2022-07-29T05:45:46;84220.69;;;22.19;37.88
70437;BME280;57877;39.750;-104.894;2022-07-29T05:48:12;84222.82;;;21.30;39.22
70437;BME280;57877;39.750;-104.894;2022-07-29T05:50:38;84224.66;;;22.03;38.64
70437;BME280;57877;39.750;-104.894;2022-07-29T05:53:04;84223.25;;;21.98;38.25
70437;BME280;57877;39.750;-104.894;2022-07-29T05:55:30;84228.15;;;21.66;38.30
70437;BME280;57877;39.750;-104.894;2022-07-29T05:57:56;84229.24;;;21.88;38.34
70437;BME280;57877;39.750;-104.894;2022-07-29T06:00:22;84230.63;;;21.88;38.36
70437;BME280;57877;39.750;-104.894;2022-07-29T06:02:48;84230.12;;;21.69;38.71
70437;BME280;57877;39.750;-104.894;2022-07-29T06:05:14;84230.00;;;21.69;38.79
70437;BME280;57877;39.750;-104.894;2022-07-29T06:07:40;84227.30;;;21.66;38.74
70437;BME280;57877;39.750;-104.894;2022-07-29T06:10:07;84227.91;;;21.55;38.81
70437;BME280;57877;39.750;-104.894;2022-07-29T06:12:32;84226.05;;;21.51;39.03
70437;BME280;57877;39.750;-104.894;2022-07-29T06:14:58;84223.05;;;21.90;39.05
70437;BME280;57877;39.750;-104.894;2022-07-29T06:17:24;84225.46;;;21.65;39.15
70437;BME280;57877;39.750;-104.894;2022-07-29T06:19:50;84228.32;;;21.50;39.05
70437;BME280;57877;39.750;-104.894;2022-07-29T06:22:16;84229.67;;;21.77;39.06
70437;BME280;57877;39.750;-104.894;2022-07-29T06:24:42;84230.75;;;21.45;39.38
70437;BME280;57877;39.750;-104.894;2022-07-29T06:27:08;84227.06;;;21.88;39.60
70437;BME280;57877;39.750;-104.894;2022-07-29T06:29:34;84229.79;;;21.46;39.72
70437;BME280;57877;39.750;-104.894;2022-07-29T06:31:59;84230.66;;;21.40;39.73
70437;BME280;57877;39.750;-104.894;2022-07-29T06:34:25;84230.86;;;21.63;39.63
70437;BME280;57877;39.750;-104.894;2022-07-29T06:36:51;84227.88;;;21.43;39.66
70437;BME280;57877;39.750;-104.894;2022-07-29T06:39:17;84225.23;;;21.45;39.67
70437;BME280;57877;39.750;-104.894;2022-07-29T06:41:47;84225.38;;;21.65;39.63
70437;BME280;57877;39.750;-104.894;2022-07-29T06:44:09;84223.59;;;21.31;39.92
70437;BME280;57877;39.750;-104.894;2022-07-29T06:46:35;84232.34;;;21.49;39.96
70437;BME280;57877;39.750;-104.894;2022-07-29T06:49:01;84234.56;;;21.39;40.10
70437;BME280;57877;39.750;-104.894;2022-07-29T06:51:27;84234.81;;;21.38;40.10
70437;BME280;57877;39.750;-104.894;2022-07-29T06:53:53;84232.84;;;21.33;40.16
70437;BME280;57877;39.750;-104.894;2022-07-29T06:56:19;84231.58;;;20.87;40.25
70437;BME280;57877;39.750;-104.894;2022-07-29T06:58:45;84231.07;;;21.28;40.31
70437;BME280;57877;39.750;-104.894;2022-07-29T07:01:10;84229.58;;;21.24;40.35
70437;BME280;57877;39.750;-104.894;2022-07-29T07:03:36;84228.41;;;20.90;40.50
70437;BME280;57877;39.750;-104.894;2022-07-29T07:06:01;84230.04;;;21.03;40.53
70437;BME280;57877;39.750;-104.894;2022-07-29T07:08:26;84229.84;;;21.12;40.52
70437;BME280;57877;39.750;-104.894;2022-07-29T07:10:51;84230.86;;;21.03;40.76
70437;BME280;57877;39.750;-104.894;2022-07-29T07:13:17;84229.70;;;21.05;40.54
70437;BME280;57877;39.750;-104.894;2022-07-29T07:15:42;84233.18;;;21.11;40.56
70437;BME280;57877;39.750;-104.894;2022-07-29T07:18:07;84228.78;;;21.06;40.71
70437;BME280;57877;39.750;-104.894;2022-07-29T07:20:32;84222.41;;;21.11;40.64
70437;BME280;57877;39.750;-104.894;2022-07-29T07:22:58;84219.05;;;20.78;40.90
70437;BME280;57877;39.750;-104.894;2022-07-29T07:25:24;84216.29;;;21.01;40.65
70437;BME280;57877;39.750;-104.894;2022-07-29T07:27:50;84214.80;;;21.07;40.61
70437;BME280;57877;39.750;-104.894;2022-07-29T07:30:16;84217.71;;;20.97;40.75
70437;BME280;57877;39.750;-104.894;2022-07-29T07:32:42;84218.68;;;21.05;40.67
70437;BME280;57877;39.750;-104.894;2022-07-29T07:35:08;84218.03;;;21.36;40.57
70437;BME280;57877;39.750;-104.894;2022-07-29T07:37:33;84216.36;;;21.03;40.69
70437;BME280;57877;39.750;-104.894;2022-07-29T07:39:59;84211.83;;;20.76;40.71
70437;BME280;57877;39.750;-104.894;2022-07-29T07:42:24;84209.81;;;20.94;40.86
70437;BME280;57877;39.750;-104.894;2022-07-29T07:44:50;84208.32;;;20.68;41.04
70437;BME280;57877;39.750;-104.894;2022-07-29T07:47:16;84206.95;;;20.92;41.04
70437;BME280;57877;39.750;-104.894;2022-07-29T07:49:42;84204.91;;;20.85;41.11
70437;BME280;57877;39.750;-104.894;2022-07-29T07:52:08;84204.52;;;20.76;41.24
70437;BME280;57877;39.750;-104.894;2022-07-29T07:54:34;84202.35;;;20.71;41.38
70437;BME280;57877;39.750;-104.894;2022-07-29T07:57:00;84200.40;;;20.72;41.37
70437;BME280;57877;39.750;-104.894;2022-07-29T07:59:27;84202.47;;;20.98;41.46
70437;BME280;57877;39.750;-104.894;2022-07-29T08:01:52;84206.56;;;20.67;41.49
70437;BME280;57877;39.750;-104.894;2022-07-29T08:04:18;84210.00;;;20.84;41.69
70437;BME280;57877;39.750;-104.894;2022-07-29T08:06:44;84211.00;;;20.65;42.02
70437;BME280;57877;39.750;-104.894;2022-07-29T08:09:16;84210.84;;;20.57;42.23
70437;BME280;57877;39.750;-104.894;2022-07-29T08:11:37;84209.12;;;20.63;42.09
70437;BME280;57877;39.750;-104.894;2022-07-29T08:14:03;84206.61;;;20.52;42.20
70437;BME280;57877;39.750;-104.894;2022-07-29T08:16:28;84204.83;;;20.48;42.30
70437;BME280;57877;39.750;-104.894;2022-07-29T08:18:54;84204.85;;;20.45;42.46
70437;BME280;57877;39.750;-104.894;2022-07-29T08:21:20;84204.51;;;20.55;42.63
70437;BME280;57877;39.750;-104.894;2022-07-29T08:23:47;84203.73;;;20.08;42.53
70437;BME280;57877;39.750;-104.894;2022-07-29T08:26:13;84204.47;;;20.14;42.55
70437;BME280;57877;39.750;-104.894;2022-07-29T08:28:39;84201.00;;;20.43;42.55
70437;BME280;57877;39.750;-104.894;2022-07-29T08:31:05;84200.49;;;20.56;42.62
70437;BME280;57877;39.750;-104.894;2022-07-29T08:33:30;84200.51;;;20.53;42.71
70437;BME280;57877;39.750;-104.894;2022-07-29T08:35:56;84198.21;;;20.25;42.92
70437;BME280;57877;39.750;-104.894;2022-07-29T08:38:22;84196.40;;;20.34;42.79
70437;BME280;57877;39.750;-104.894;2022-07-29T08:40:49;84199.59;;;20.35;42.96
70437;BME280;57877;39.750;-104.894;2022-07-29T08:43:14;84200.37;;;19.92;43.09
70437;BME280;57877;39.750;-104.894;2022-07-29T08:45:44;84197.56;;;19.81;43.36
70437;BME280;57877;39.750;-104.894;2022-07-29T08:48:06;84191.23;;;20.05;43.18
70437;BME280;57877;39.750;-104.894;2022-07-29T08:50:35;84190.57;;;20.07;43.18
70437;BME280;57877;39.750;-104.894;2022-07-29T08:52:58;84190.37;;;20.06;43.19
70437;BME280;57877;39.750;-104.894;2022-07-29T08:55:24;84188.75;;;19.87;43.11
70437;BME280;57877;39.750;-104.894;2022-07-29T08:57:50;84190.04;;;19.98;43.45
70437;BME280;57877;39.750;-104.894;2022-07-29T09:00:16;84190.29;;;20.06;43.21
70437;BME280;57877;39.750;-104.894;2022-07-29T09:02:46;84189.47;;;19.90;43.43
70437;BME280;57877;39.750;-104.894;2022-07-29T09:05:08;84186.19;;;19.91;43.45
70437;BME280;57877;39.750;-104.894;2022-07-29T09:07:34;84179.34;;;19.90;43.46
70437;BME280;57877;39.750;-104.894;2022-07-29T09:10:00;84175.09;;;19.81;43.58
70437;BME280;57877;39.750;-104.894;2022-07-29T09:12:25;84177.68;;;19.78;43.64
70437;BME280;57877;39.750;-104.894;2022-07-29T09:14:52;84177.21;;;19.74;43.64
70437;BME280;57877;39.750;-104.894;2022-07-29T09:17:18;84179.72;;;19.81;43.58
70437;BME280;57877;39.750;-104.894;2022-07-29T09:19:44;84182.41;;;19.83;43.55
70437;BME280;57877;39.750;-104.894;2022-07-29T09:22:09;84184.22;;;19.76;43.65
70437;BME280;57877;39.750;-104.894;2022-07-29T09:24:42;84182.37;;;19.67;43.75
70437;BME280;57877;39.750;-104.894;2022-07-29T09:27:01;84182.69;;;19.63;43.85
70437;BME280;57877;39.750;-104.894;2022-07-29T09:29:27;84181.55;;;19.60;43.88
70437;BME280;57877;39.750;-104.894;2022-07-29T09:31:54;84176.94;;;19.71;43.70
70437;BME280;57877;39.750;-104.894;2022-07-29T09:34:23;84175.78;;;19.74;43.66
70437;BME280;57877;39.750;-104.894;2022-07-29T09:36:46;84174.45;;;19.77;43.53
70437;BME280;57877;39.750;-104.894;2022-07-29T09:39:11;84174.58;;;19.84;43.42
70437;BME280;57877;39.750;-104.894;2022-07-29T09:41:45;84173.95;;;19.57;43.44
70437;BME280;57877;39.750;-104.894;2022-07-29T09:44:03;84174.03;;;19.56;43.91
70437;BME280;57877;39.750;-104.894;2022-07-29T09:46:29;84175.17;;;19.57;43.81
70437;BME280;57877;39.750;-104.894;2022-07-29T09:49:07;84173.25;;;19.48;43.93
70437;BME280;57877;39.750;-104.894;2022-07-29T09:51:21;84172.36;;;19.36;44.12
70437;BME280;57877;39.750;-104.894;2022-07-29T09:53:47;84172.56;;;19.29;44.26
70437;BME280;57877;39.750;-104.894;2022-07-29T09:56:12;84171.07;;;19.14;44.49
70437;BME280;57877;39.750;-104.894;2022-07-29T09:58:39;84168.86;;;19.22;44.40
70437;BME280;57877;39.750;-104.894;2022-07-29T10:01:05;84167.78;;;19.75;44.35
70437;BME280;57877;39.750;-104.894;2022-07-29T10:03:31;84169.32;;;19.39;44.02
70437;BME280;57877;39.750;-104.894;2022-07-29T10:06:05;84170.99;;;19.31;44.15
70437;BME280;57877;39.750;-104.894;2022-07-29T10:08:26;84171.70;;;19.38;44.09
70437;BME280;57877;39.750;-104.894;2022-07-29T10:10:49;84170.47;;;19.46;43.83
70437;BME280;57877;39.750;-104.894;2022-07-29T10:13:15;84170.75;;;19.38;43.83
70437;BME280;57877;39.750;-104.894;2022-07-29T10:15:43;84169.75;;;19.60;43.77
70437;BME280;57877;39.750;-104.894;2022-07-29T10:18:08;84166.96;;;19.16;44.31
70437;BME280;57877;39.750;-104.894;2022-07-29T10:20:32;84163.83;;;19.47;44.28
70437;BME280;57877;39.750;-104.894;2022-07-29T10:22:58;84163.90;;;19.22;44.23
70437;BME280;57877;39.750;-104.894;2022-07-29T10:25:25;84167.40;;;19.27;44.18
70437;BME280;57877;39.750;-104.894;2022-07-29T10:27:51;84164.69;;;19.20;44.11
70437;BME280;57877;39.750;-104.894;2022-07-29T10:30:16;84163.57;;;19.57;43.95
70437;BME280;57877;39.750;-104.894;2022-07-29T10:32:54;84163.86;;;19.23;43.99
70437;BME280;57877;39.750;-104.894;2022-07-29T10:35:14;84168.65;;;19.23;43.84
70437;BME280;57877;39.750;-104.894;2022-07-29T10:37:40;84168.38;;;19.19;44.11
70437;BME280;57877;39.750;-104.894;2022-07-29T10:40:00;84167.16;;;19.17;44.06
70437;BME280;57877;39.750;-104.894;2022-07-29T10:42:22;84168.06;;;19.18;44.02
70437;BME280;57877;39.750;-104.894;2022-07-29T10:44:46;84173.05;;;19.48;43.98
70437;BME280;57877;39.750;-104.894;2022-07-29T10:47:20;84177.15;;;19.10;44.12
70437;BME280;57877;39.750;-104.894;2022-07-29T10:52:05;84180.17;;;19.30;44.34
70437;BME280;57877;39.750;-104.894;2022-07-29T10:56:53;84182.22;;;19.19;44.65
70437;BME280;57877;39.750;-104.894;2022-07-29T10:59:23;84185.01;;;19.40;44.73
70437;BME280;57877;39.750;-104.894;2022-07-29T11:01:43;84185.11;;;19.24;44.71
70437;BME280;57877;39.750;-104.894;2022-07-29T11:04:09;84186.54;;;19.36;44.41
70437;BME280;57877;39.750;-104.894;2022-07-29T11:11:31;84188.99;;;19.47;44.17
70437;BME280;57877;39.750;-104.894;2022-07-29T11:13:53;84193.21;;;19.22;44.09
70437;BME280;57877;39.750;-104.894;2022-07-29T11:16:20;84195.50;;;19.29;44.45
70437;BME280;57877;39.750;-104.894;2022-07-29T11:23:37;84208.31;;;19.20;44.62
70437;BME280;57877;39.750;-104.894;2022-07-29T11:28:30;84209.59;;;18.81;44.40
70437;BME280;57877;39.750;-104.894;2022-07-29T11:30:55;84210.17;;;19.41;43.83
70437;BME280;57877;39.750;-104.894;2022-07-29T11:33:27;84209.08;;;19.36;43.88
70437;BME280;57877;39.750;-104.894;2022-07-29T11:40:39;84212.48;;;18.82;43.60
70437;BME280;57877;39.750;-104.894;2022-07-29T11:43:05;84215.80;;;18.81;43.57
70437;BME280;57877;39.750;-104.894;2022-07-29T11:47:58;84215.52;;;18.61;43.31
70437;BME280;57877;39.750;-104.894;2022-07-29T11:50:29;84218.50;;;18.62;43.01
70437;BME280;57877;39.750;-104.894;2022-07-29T11:52:49;84225.41;;;18.72;42.92
70437;BME280;57877;39.750;-104.894;2022-07-29T11:55:16;84227.60;;;18.57;42.49
70437;BME280;57877;39.750;-104.894;2022-07-29T11:57:46;84228.12;;;18.86;42.31
70437;BME280;57877;39.750;-104.894;2022-07-29T12:00:07;84231.09;;;18.55;41.98
70437;BME280;57877;39.750;-104.894;2022-07-29T12:04:57;84235.03;;;18.65;41.43
70437;BME280;57877;39.750;-104.894;2022-07-29T12:07:26;84236.46;;;18.89;41.07
70437;BME280;57877;39.750;-104.894;2022-07-29T12:09:50;84237.72;;;18.92;41.02
70437;BME280;57877;39.750;-104.894;2022-07-29T12:12:16;84242.48;;;19.03;40.91
70437;BME280;57877;39.750;-104.894;2022-07-29T12:14:39;84245.36;;;18.97;40.86
70437;BME280;57877;39.750;-104.894;2022-07-29T12:17:05;84250.31;;;18.83;40.96
70437;BME280;57877;39.750;-104.894;2022-07-29T12:21:57;84252.43;;;19.47;40.63
70437;BME280;57877;39.750;-104.894;2022-07-29T12:24:24;84254.15;;;19.25;40.28
70437;BME280;57877;39.750;-104.894;2022-07-29T12:26:51;84253.40;;;19.02;40.08
70437;BME280;57877;39.750;-104.894;2022-07-29T12:29:16;84254.11;;;19.58;40.05
70437;BME280;57877;39.750;-104.894;2022-07-29T12:31:42;84256.21;;;19.22;40.23
70437;BME280;57877;39.750;-104.894;2022-07-29T12:34:07;84258.53;;;19.39;40.06
70437;BME280;57877;39.750;-104.894;2022-07-29T12:36:33;84261.76;;;19.24;40.10
70437;BME280;57877;39.750;-104.894;2022-07-29T12:38:59;84262.85;;;19.06;40.25
70437;BME280;57877;39.750;-104.894;2022-07-29T12:41:27;84264.27;;;19.45;39.98
70437;BME280;57877;39.750;-104.894;2022-07-29T12:43:53;84266.14;;;19.42;40.42
70437;BME280;57877;39.750;-104.894;2022-07-29T12:46:17;84270.60;;;19.81;39.47
70437;BME280;57877;39.750;-104.894;2022-07-29T12:48:44;84268.43;;;19.70;39.62
70437;BME280;57877;39.750;-104.894;2022-07-29T12:51:11;84271.11;;;19.77;40.04
70437;BME280;57877;39.750;-104.894;2022-07-29T12:53:36;84270.47;;;20.01;39.50
70437;BME280;57877;39.750;-104.894;2022-07-29T12:56:03;84272.49;;;20.16;39.26
70437;BME280;57877;39.750;-104.894;2022-07-29T12:58:31;84271.43;;;19.81;39.32